Airfield :
LOGIN :

Register | Disclaimer

   EN    FR    IT 

 










Legend :    VFR   Marginal VFR   IFR   Intensive IFR   Very Intensive IFR
Visi :
Ceiling :
>= 8 km
>= 3000ft
5 to 8 km
1000 to 3000 ft
1500m to 5 km
500 to 1000 ft
800 to 1500m
200 to 500 ft
< 800m
< 200 ft
Symbols :   Thunderstorms  Fog  Heavy snow  Heavy precipitations  Wind > 20 kt
SIGMETs :     Misc.  Thunderstorms  Icing  Turbulence  Mountain Waves  Volcanic Ashes






- Airport Elevation : 121 ft
- IATA code : HUY


EGNJ - Humberside

CURRENT METAR :
  • 200950Z 32012KT 9999 FEW012 SCT032 11/08 Q1010

EXPIRED METARs :
  • 200920Z 32011KT 9999 FEW014 SCT045 11/08 Q1010
  • 200850Z 33009KT 9999 FEW014 SCT040 10/08 Q1010
  • 200820Z 30006KT 9999 FEW014 SCT033 10/08 Q1010
  • 200750Z 30008KT 9999 FEW015 SCT040 09/07 Q1009
  • 200720Z 29008KT 9999 FEW015 SCT040 09/07 Q1009
  • 200650Z 30008KT 9999 FEW015 SCT040 08/07 Q1008

TAF TAF EGNJ
Valid from the 20 at 09:00 until the 20 at 18:00 UTC


200802Z 2009/2018 31009KT 9999 FEW015 SCT045
TEMPO 2009/2018 7000 SHRA BKN012
PROB30
TEMPO 2012/2018 34015G25KT
ATIS : +44 1652 682 020



MET'MAP, your aeronautical weather chart ! - Copyright ORBIFLY December 2007 - Disclaimer

ORBIFLY MET'MAP TEAM :

Programming & Development : Alexandra Zaïnal
Concept & Development : Baudouin d'Aumeries
Co-Development & Prog : Marc-Olivier Méhu
Technical & hardware support : Manuel Goepfert

Contact : metmap@orbifly.com




SOURCES & CREDITS :

   NOAA